Time;durP1;ratioP1;P1;durP2;ratioP2;P2;SDS_P1;SDS_P2;PMS_P1;PMS_P2;Temp;Humidity;BMP_temperature;BMP_pressure;BME280_temperature;BME280_humidity;BME280_pressure;Samples;Min_cycle;Max_cycle;Signal;HPM_P1;HPM_P2
2024/02/22 00:02:23;;;;;;;2.43;1.53;;;9.20;99.90;;;;;;4963884;28;20267;-73
2024/02/22 00:04:50;;;;;;;3.67;2.10;;;9.20;99.90;;;;;;4949615;28;20222;-73
2024/02/22 00:07:17;;;;;;;2.83;1.90;;;9.20;99.90;;;;;;4949247;28;20753;-72
2024/02/22 00:09:45;;;;;;;5.43;2.07;;;9.30;99.90;;;;;;4949965;28;20216;-72
2024/02/22 00:12:13;;;;;;;5.17;1.97;;;9.30;99.90;;;;;;4965964;28;20250;-73
2024/02/22 00:14:40;;;;;;;3.93;2.00;;;9.30;99.90;;;;;;4968126;28;20501;-72
2024/02/22 00:17:07;;;;;;;5.40;2.10;;;9.30;99.90;;;;;;4968286;28;20207;-73
2024/02/22 00:19:34;;;;;;;5.83;2.37;;;9.30;99.90;;;;;;4950726;28;20204;-73
2024/02/22 00:22:01;;;;;;;2.37;1.90;;;9.30;99.90;;;;;;4949235;28;20603;-73
2024/02/22 00:24:28;;;;;;;4.27;1.80;;;9.30;99.90;;;;;;4948925;28;20279;-73
2024/02/22 00:26:56;;;;;;;3.80;1.80;;;9.20;99.90;;;;;;4963768;28;20210;-73
2024/02/22 00:29:23;;;;;;;2.47;1.80;;;9.30;99.90;;;;;;4968503;28;20304;-72
2024/02/22 00:31:50;;;;;;;2.67;1.80;;;9.30;99.90;;;;;;4960310;28;20249;-72
2024/02/22 00:34:17;;;;;;;4.57;1.90;;;9.30;99.90;;;;;;4949127;28;20653;-72
2024/02/22 00:36:44;;;;;;;8.60;1.93;;;9.30;99.90;;;;;;4949387;28;20211;-73
2024/02/22 00:39:11;;;;;;;2.67;1.90;;;9.30;99.90;;;;;;4949228;28;20728;-74
2024/02/22 00:41:38;;;;;;;1.80;1.70;;;9.30;99.90;;;;;;4949257;28;20797;-73
2024/02/22 00:44:07;;;;;;;3.43;1.63;;;9.30;99.90;;;;;;4949173;28;20213;-73
2024/02/22 00:46:34;;;;;;;4.33;1.70;;;9.30;99.90;;;;;;4949060;28;20255;-74
2024/02/22 00:49:01;;;;;;;2.90;1.63;;;9.30;99.90;;;;;;4949000;28;20211;-74
2024/02/22 00:51:28;;;;;;;2.47;1.23;;;9.30;99.90;;;;;;4951251;28;20294;-73
2024/02/22 00:53:55;;;;;;;3.33;1.70;;;9.30;99.90;;;;;;4968354;28;20291;-72
2024/02/22 00:56:22;;;;;;;2.37;1.77;;;9.30;99.90;;;;;;4962426;28;20212;-73
2024/02/22 00:58:49;;;;;;;2.63;1.60;;;9.40;99.90;;;;;;4949167;29;20302;-73
2024/02/22 01:01:17;;;;;;;2.37;1.60;;;9.40;99.90;;;;;;4948911;29;20262;-72
2024/02/22 01:03:44;;;;;;;2.10;1.43;;;9.40;99.90;;;;;;4968201;28;20246;-72
2024/02/22 01:06:13;;;;;;;3.03;1.70;;;9.40;99.90;;;;;;4968013;28;20301;-72
2024/02/22 01:08:40;;;;;;;2.60;1.50;;;9.40;99.90;;;;;;4968047;28;20215;-72
2024/02/22 01:11:07;;;;;;;3.83;1.53;;;9.40;99.90;;;;;;4967865;28;20773;-72
2024/02/22 01:13:34;;;;;;;2.77;1.73;;;9.40;99.90;;;;;;4968143;28;20326;-72
2024/02/22 01:16:01;;;;;;;1.80;1.60;;;9.40;99.90;;;;;;4950443;28;20682;-72
2024/02/22 01:18:29;;;;;;;3.63;1.60;;;9.40;99.90;;;;;;4948660;28;20212;-72
2024/02/22 01:20:56;;;;;;;3.80;1.80;;;9.40;99.90;;;;;;4948937;28;20298;-72
2024/02/22 01:23:23;;;;;;;2.47;1.63;;;9.40;99.90;;;;;;4948529;28;20637;-72
2024/02/22 01:25:50;;;;;;;4.87;1.57;;;9.40;99.90;;;;;;4950374;28;20689;-72
2024/02/22 01:28:17;;;;;;;3.83;1.60;;;9.40;99.90;;;;;;4971711;28;20590;-71
2024/02/22 01:30:44;;;;;;;1.60;1.50;;;9.40;99.90;;;;;;4971747;28;20209;-72
2024/02/22 01:33:12;;;;;;;3.83;1.70;;;9.40;99.90;;;;;;4971739;28;20234;-73
2024/02/22 01:35:40;;;;;;;1.43;1.30;;;9.40;99.90;;;;;;4971761;28;20738;-72
2024/02/22 01:38:07;;;;;;;3.20;1.30;;;9.40;99.90;;;;;;4971542;28;20207;-73
2024/02/22 01:40:34;;;;;;;1.57;1.20;;;9.40;99.90;;;;;;4971911;28;20217;-73
2024/02/22 01:43:00;;;;;;;2.27;1.20;;;9.40;99.90;;;;;;4971628;28;21033;-73
2024/02/22 01:45:27;;;;;;;2.17;1.20;;;9.40;99.90;;;;;;4971652;28;20222;-72
2024/02/22 01:47:54;;;;;;;2.50;1.40;;;9.40;99.90;;;;;;4971568;28;20217;-73
2024/02/22 01:50:22;;;;;;;1.57;1.37;;;9.40;99.90;;;;;;4967142;28;20242;-73
2024/02/22 01:52:51;;;;;;;1.43;1.20;;;9.40;99.90;;;;;;4952047;28;20861;-72
2024/02/22 01:55:20;;;;;;;3.73;1.20;;;9.40;99.90;;;;;;4952194;28;20311;-73
2024/02/22 01:57:49;;;;;;;3.30;1.40;;;9.40;99.90;;;;;;4960505;28;20290;-72
2024/02/22 02:00:17;;;;;;;1.77;1.10;;;9.50;99.90;;;;;;4952411;28;20200;-72
2024/02/22 02:02:44;;;;;;;2.70;1.40;;;9.50;99.90;;;;;;4953897;28;20274;-73
2024/02/22 02:05:11;;;;;;;2.73;1.60;;;9.50;99.90;;;;;;4971048;28;20730;-73
2024/02/22 02:07:38;;;;;;;2.67;1.50;;;9.50;99.90;;;;;;4968540;28;20286;-73
2024/02/22 02:10:09;;;;;;;3.53;1.40;;;9.50;99.90;;;;;;4953983;28;20235;-73
2024/02/22 02:12:37;;;;;;;2.87;1.37;;;9.50;99.90;;;;;;4952194;28;20216;-73
2024/02/22 02:15:04;;;;;;;3.27;1.20;;;9.50;99.90;;;;;;4951651;28;20836;-73
2024/02/22 02:17:31;;;;;;;3.00;1.20;;;9.50;99.90;;;;;;4956719;28;20749;-73
2024/02/22 02:20:00;;;;;;;2.77;1.23;;;9.50;99.90;;;;;;4971118;28;20298;-73
2024/02/22 02:22:51;;;;;;;4.67;1.27;;;9.50;99.90;;;;;;4971038;28;20235;-73
2024/02/22 02:25:20;;;;;;;2.07;1.30;;;9.50;99.90;;;;;;4971015;28;20577;-73
2024/02/22 02:27:47;;;;;;;1.30;0.87;;;9.50;99.90;;;;;;4971143;28;20265;-73
2024/02/22 02:30:14;;;;;;;2.30;1.30;;;9.50;99.90;;;;;;4971072;28;20215;-73
2024/02/22 02:32:41;;;;;;;1.53;1.00;;;9.50;99.90;;;;;;4970766;28;20503;-73
2024/02/22 02:35:08;;;;;;;1.00;0.80;;;9.60;99.90;;;;;;4970357;28;20213;-73
2024/02/22 02:37:35;;;;;;;2.40;1.10;;;9.50;99.90;;;;;;4970544;28;20297;-73
2024/02/22 02:40:04;;;;;;;2.37;1.17;;;9.50;99.90;;;;;;4970856;28;20210;-73
2024/02/22 02:42:32;;;;;;;2.27;0.97;;;9.60;99.90;;;;;;4957755;28;20235;-72
2024/02/22 02:44:59;;;;;;;1.47;1.00;;;9.50;99.90;;;;;;4960858;28;20297;-72
2024/02/22 02:47:26;;;;;;;0.80;0.80;;;9.50;99.90;;;;;;4970375;28;20217;-72
2024/02/22 02:49:53;;;;;;;2.53;1.20;;;9.50;99.90;;;;;;4970410;28;20737;-72
2024/02/22 02:52:19;;;;;;;3.23;0.90;;;9.50;99.90;;;;;;4969843;28;20294;-72
2024/02/22 02:54:46;;;;;;;2.33;1.10;;;9.50;99.90;;;;;;4970218;28;20258;-72
2024/02/22 02:57:13;;;;;;;2.43;0.93;;;9.50;99.90;;;;;;4957947;28;20302;-72
2024/02/22 02:59:41;;;;;;;2.10;0.90;;;9.50;99.90;;;;;;4958345;28;20325;-72
2024/02/22 03:02:08;;;;;;;2.10;0.90;;;9.50;99.90;;;;;;4970136;28;20233;-73
2024/02/22 03:04:35;;;;;;;1.40;0.70;;;9.60;99.90;;;;;;4959465;28;20309;-72
2024/02/22 03:07:02;;;;;;;2.80;0.80;;;9.50;99.90;;;;;;4959183;28;20210;-73
2024/02/22 03:09:29;;;;;;;1.20;0.87;;;9.50;99.90;;;;;;4959558;28;20274;-73
2024/02/22 03:11:56;;;;;;;1.10;1.00;;;9.60;99.90;;;;;;4961982;28;20294;-73
2024/02/22 03:14:23;;;;;;;1.07;0.70;;;9.60;99.90;;;;;;4958284;28;20646;-72
2024/02/22 03:16:51;;;;;;;1.90;0.93;;;9.70;99.90;;;;;;4956833;28;20266;-72
2024/02/22 03:19:18;;;;;;;0.87;0.80;;;9.70;99.90;;;;;;4950644;28;20745;-73
2024/02/22 03:21:45;;;;;;;0.53;0.53;;;9.80;99.90;;;;;;4950392;28;20234;-73
2024/02/22 03:24:14;;;;;;;2.63;1.00;;;9.80;99.90;;;;;;4949757;28;20358;-72
2024/02/22 03:26:44;;;;;;;1.20;0.80;;;9.90;99.90;;;;;;4950659;28;20250;-73
2024/02/22 03:29:10;;;;;;;2.13;0.80;;;9.90;99.90;;;;;;4947727;28;20303;-72
2024/02/22 03:31:37;;;;;;;1.40;0.77;;;10.00;99.90;;;;;;4948013;29;20254;-73
2024/02/22 03:34:05;;;;;;;2.30;1.00;;;10.00;99.90;;;;;;4947433;28;20278;-73
2024/02/22 03:36:34;;;;;;;0.93;0.80;;;10.00;99.90;;;;;;4947477;29;20211;-72
2024/02/22 03:39:02;;;;;;;1.30;1.10;;;10.00;99.90;;;;;;4958433;28;20206;-72
2024/02/22 03:41:30;;;;;;;1.27;1.00;;;10.00;99.90;;;;;;4966543;28;20207;-73
2024/02/22 03:43:56;;;;;;;0.93;0.80;;;10.00;99.90;;;;;;4967014;28;20330;-73
2024/02/22 03:46:23;;;;;;;0.80;0.80;;;10.00;99.90;;;;;;4967112;28;20294;-73
2024/02/22 03:48:50;;;;;;;1.77;0.83;;;10.00;99.90;;;;;;4967440;28;20294;-73
2024/02/22 03:51:18;;;;;;;2.23;0.80;;;10.00;99.90;;;;;;4968006;28;20215;-73
2024/02/22 03:53:45;;;;;;;1.33;0.90;;;9.90;99.90;;;;;;4967569;28;20654;-73
2024/02/22 03:56:12;;;;;;;0.90;0.90;;;9.90;99.90;;;;;;4967252;28;20210;-73
2024/02/22 03:58:39;;;;;;;1.00;1.00;;;9.90;99.90;;;;;;4967907;28;20258;-73
2024/02/22 04:01:06;;;;;;;1.20;0.93;;;9.90;99.90;;;;;;4967284;28;20861;-73
2024/02/22 04:03:34;;;;;;;1.23;0.97;;;9.80;99.90;;;;;;4968364;28;20747;-73
2024/02/22 04:06:01;;;;;;;1.63;1.00;;;9.80;99.90;;;;;;4967968;28;20214;-73
2024/02/22 04:08:29;;;;;;;1.13;1.10;;;9.80;99.90;;;;;;4968035;28;20305;-73
2024/02/22 04:10:56;;;;;;;1.23;1.10;;;9.80;99.90;;;;;;4967920;28;21014;-73
2024/02/22 04:13:22;;;;;;;2.17;1.00;;;9.70;99.90;;;;;;4968297;28;20824;-73
2024/02/22 04:15:49;;;;;;;1.17;0.90;;;9.70;99.90;;;;;;4968089;28;20250;-73
2024/02/22 04:18:16;;;;;;;1.00;0.90;;;9.70;99.90;;;;;;4968067;28;20297;-73
2024/02/22 04:20:43;;;;;;;1.17;1.13;;;9.70;99.90;;;;;;4968173;28;20207;-73
2024/02/22 04:23:10;;;;;;;1.23;1.13;;;9.70;99.90;;;;;;4928818;28;1134169;-73
2024/02/22 04:25:39;;;;;;;1.70;0.93;;;9.70;99.90;;;;;;4968976;28;20211;-73
2024/02/22 04:28:06;;;;;;;0.63;0.63;;;9.70;99.90;;;;;;4968860;28;20210;-73
2024/02/22 04:30:33;;;;;;;1.27;1.20;;;9.70;99.90;;;;;;4968649;28;20297;-74
2024/02/22 04:33:00;;;;;;;1.50;1.10;;;9.70;99.90;;;;;;4968803;28;20323;-74
2024/02/22 04:35:27;;;;;;;1.43;0.87;;;9.60;99.90;;;;;;4968980;28;20341;-74
2024/02/22 04:37:54;;;;;;;1.00;1.00;;;9.60;99.90;;;;;;4968889;28;20214;-73
2024/02/22 04:40:21;;;;;;;0.70;0.70;;;9.60;99.90;;;;;;4968439;28;20211;-73
2024/02/22 04:42:49;;;;;;;0.70;0.70;;;9.60;99.90;;;;;;4968678;28;20321;-73
2024/02/22 04:45:16;;;;;;;1.77;1.03;;;9.60;99.90;;;;;;4968352;28;20621;-73
2024/02/22 04:47:43;;;;;;;1.10;1.00;;;9.60;99.90;;;;;;4968222;28;20865;-73
2024/02/22 04:50:10;;;;;;;1.10;1.00;;;9.60;99.90;;;;;;4968379;28;20207;-73
2024/02/22 04:52:37;;;;;;;0.90;0.90;;;9.60;99.90;;;;;;4968370;28;20297;-73
2024/02/22 04:55:04;;;;;;;0.87;0.83;;;9.60;99.90;;;;;;4968013;28;20277;-73
2024/02/22 04:57:31;;;;;;;1.03;0.90;;;9.60;99.90;;;;;;4968173;28;20257;-73
2024/02/22 05:00:00;;;;;;;2.03;0.80;;;9.60;99.90;;;;;;4968101;28;20265;-73
2024/02/22 05:02:27;;;;;;;1.43;1.07;;;9.50;99.90;;;;;;4967577;28;20725;-74
2024/02/22 05:04:53;;;;;;;1.30;1.20;;;9.50;99.90;;;;;;4968262;28;20207;-73
2024/02/22 05:07:21;;;;;;;0.93;0.80;;;9.50;99.90;;;;;;4968051;28;20269;-73
2024/02/22 05:09:48;;;;;;;0.73;0.70;;;9.50;99.90;;;;;;4968240;28;20217;-73
2024/02/22 05:12:15;;;;;;;1.03;0.80;;;9.50;99.90;;;;;;4967683;28;20301;-73
2024/02/22 05:14:44;;;;;;;1.83;0.73;;;9.50;99.90;;;;;;4968042;28;20673;-73
2024/02/22 05:17:13;;;;;;;0.90;0.90;;;9.40;99.90;;;;;;4967674;28;21000;-73
2024/02/22 05:19:40;;;;;;;1.10;1.03;;;9.40;99.90;;;;;;4968238;28;20234;-73
2024/02/22 05:22:07;;;;;;;1.40;0.90;;;9.40;99.90;;;;;;4967767;28;20321;-73
2024/02/22 05:24:34;;;;;;;1.00;1.00;;;9.30;99.90;;;;;;4967596;28;20336;-73
2024/02/22 05:27:01;;;;;;;1.17;1.10;;;9.30;99.90;;;;;;4968080;28;20303;-73
2024/02/22 05:29:28;;;;;;;0.97;0.97;;;9.30;99.90;;;;;;4968145;28;20235;-73
2024/02/22 05:31:55;;;;;;;1.23;0.97;;;9.30;99.90;;;;;;4967772;28;20207;-73
2024/02/22 05:34:24;;;;;;;0.87;0.87;;;9.20;99.90;;;;;;4967477;28;20819;-73
2024/02/22 05:36:51;;;;;;;0.70;0.70;;;9.30;99.90;;;;;;4967480;28;20647;-73
2024/02/22 05:39:18;;;;;;;1.60;0.90;;;9.30;99.90;;;;;;4967615;28;20692;-73
2024/02/22 05:41:45;;;;;;;0.87;0.87;;;9.20;99.90;;;;;;4967932;28;20297;-73
2024/02/22 05:44:12;;;;;;;2.50;0.90;;;9.20;99.90;;;;;;4966152;28;20317;-74
2024/02/22 05:46:39;;;;;;;1.13;0.70;;;9.20;99.90;;;;;;4945589;28;20294;-74
2024/02/22 05:49:07;;;;;;;1.07;0.80;;;9.20;99.90;;;;;;4960724;28;20293;-73
2024/02/22 05:51:35;;;;;;;1.20;1.00;;;9.20;99.90;;;;;;4967655;28;20211;-73
2024/02/22 05:54:02;;;;;;;0.90;0.90;;;9.20;99.90;;;;;;4967760;28;20306;-73
2024/02/22 05:56:29;;;;;;;1.30;0.90;;;9.10;99.90;;;;;;4967581;28;20279;-73
2024/02/22 05:58:56;;;;;;;0.90;0.90;;;9.10;99.90;;;;;;4967993;28;20211;-73
2024/02/22 06:01:24;;;;;;;2.00;1.00;;;9.10;99.90;;;;;;4967846;28;20206;-73
2024/02/22 06:03:51;;;;;;;1.07;0.70;;;9.00;99.90;;;;;;4967352;28;20235;-73
2024/02/22 06:06:17;;;;;;;1.00;1.00;;;9.10;99.90;;;;;;4967202;28;20242;-73
2024/02/22 06:08:46;;;;;;;1.17;1.17;;;9.10;99.90;;;;;;4967638;28;20310;-74
2024/02/22 06:11:15;;;;;;;0.90;0.90;;;9.10;99.90;;;;;;4967555;28;20297;-73
2024/02/22 06:13:42;;;;;;;0.87;0.87;;;9.10;99.90;;;;;;4970938;28;20211;-73
2024/02/22 06:16:10;;;;;;;0.70;0.70;;;9.10;99.90;;;;;;4971061;28;20305;-73
2024/02/22 06:18:37;;;;;;;1.00;1.00;;;9.10;99.90;;;;;;4971228;28;20215;-73
2024/02/22 06:21:04;;;;;;;1.00;0.87;;;9.10;99.90;;;;;;4970537;28;20663;-74
2024/02/22 06:23:31;;;;;;;1.27;1.17;;;9.20;99.90;;;;;;4970664;28;20333;-73
2024/02/22 06:25:59;;;;;;;1.40;1.30;;;9.10;99.90;;;;;;4970777;28;20203;-73
2024/02/22 06:28:26;;;;;;;0.97;0.77;;;9.10;99.90;;;;;;4970460;28;20303;-74
2024/02/22 06:30:53;;;;;;;0.90;0.90;;;9.20;99.90;;;;;;4970951;28;20286;-73
2024/02/22 06:33:21;;;;;;;2.63;1.10;;;9.20;99.90;;;;;;4970489;28;20239;-74
2024/02/22 06:35:48;;;;;;;0.90;0.90;;;9.10;99.90;;;;;;4970997;28;20215;-73
2024/02/22 06:38:16;;;;;;;1.77;1.20;;;9.20;99.90;;;;;;4970476;28;20321;-73
2024/02/22 06:40:49;;;;;;;2.47;1.20;;;9.20;99.90;;;;;;4970546;28;20207;-74
2024/02/22 06:43:18;;;;;;;1.63;1.03;;;9.10;99.90;;;;;;4970163;28;20235;-74
2024/02/22 06:45:45;;;;;;;1.00;1.00;;;9.20;99.90;;;;;;4970242;28;20276;-74
2024/02/22 06:48:12;;;;;;;1.20;1.10;;;9.10;99.90;;;;;;4953479;28;20302;-73
2024/02/22 06:50:38;;;;;;;0.90;0.90;;;9.20;99.90;;;;;;4950769;28;20770;-74
2024/02/22 06:53:06;;;;;;;1.50;0.90;;;9.10;99.90;;;;;;4950609;28;20746;-73
2024/02/22 06:55:33;;;;;;;1.93;1.00;;;9.20;99.90;;;;;;4950830;28;20203;-74
2024/02/22 06:58:01;;;;;;;1.10;1.00;;;9.20;99.90;;;;;;4950936;28;20247;-74
2024/02/22 07:00:29;;;;;;;0.87;0.83;;;9.20;99.90;;;;;;4950777;29;20697;-74
2024/02/22 07:02:56;;;;;;;2.27;0.80;;;9.20;99.90;;;;;;4968011;28;20238;-73
2024/02/22 07:05:23;;;;;;;1.10;1.00;;;9.10;99.90;;;;;;4970187;28;20302;-74
2024/02/22 07:07:50;;;;;;;0.90;0.90;;;9.20;99.90;;;;;;4969556;28;20329;-74
2024/02/22 07:10:17;;;;;;;2.00;0.80;;;9.10;99.90;;;;;;4970069;28;20635;-74
2024/02/22 07:12:44;;;;;;;0.97;0.83;;;9.20;99.90;;;;;;4969668;28;20301;-74
2024/02/22 07:15:12;;;;;;;0.60;0.60;;;9.10;99.90;;;;;;4969995;28;20214;-74
2024/02/22 07:17:41;;;;;;;0.80;0.80;;;9.10;99.90;;;;;;4970125;28;20206;-74
2024/02/22 07:20:08;;;;;;;0.70;0.70;;;9.10;99.90;;;;;;4969585;28;20218;-74
2024/02/22 07:22:35;;;;;;;1.00;1.00;;;9.10;99.90;;;;;;4969537;28;20306;-74
2024/02/22 07:25:02;;;;;;;0.70;0.70;;;9.10;99.90;;;;;;4968264;28;20341;-73
2024/02/22 07:27:28;;;;;;;0.90;0.90;;;9.10;99.90;;;;;;4969773;28;20313;-74
2024/02/22 07:29:56;;;;;;;1.10;1.10;;;9.10;99.90;;;;;;4969562;28;20306;-74
2024/02/22 07:32:22;;;;;;;0.77;0.77;;;9.10;99.90;;;;;;4969506;28;20206;-74
2024/02/22 07:34:51;;;;;;;1.00;1.00;;;9.10;99.90;;;;;;4969977;28;20242;-74
2024/02/22 07:37:18;;;;;;;0.97;0.97;;;9.10;99.90;;;;;;4969318;28;20242;-74
2024/02/22 07:39:45;;;;;;;1.90;1.10;;;9.10;99.90;;;;;;4969747;28;20215;-73
2024/02/22 07:42:13;;;;;;;1.27;1.17;;;9.10;99.90;;;;;;4969199;28;20808;-74
2024/02/22 07:44:43;;;;;;;0.93;0.90;;;8.90;99.90;;;;;;4970073;28;20395;-73
2024/02/22 07:47:11;;;;;;;1.53;0.93;;;8.90;99.90;;;;;;4969379;28;20782;-73
2024/02/22 07:49:38;;;;;;;1.17;1.07;;;8.90;99.90;;;;;;4969235;28;20700;-74
2024/02/22 07:52:07;;;;;;;1.17;1.07;;;8.90;99.90;;;;;;4968884;28;20334;-74
2024/02/22 07:54:34;;;;;;;1.73;0.87;;;8.90;99.90;;;;;;4969139;28;20214;-73
2024/02/22 07:57:01;;;;;;;1.60;1.20;;;8.90;99.90;;;;;;4969091;28;20309;-74
2024/02/22 07:59:28;;;;;;;1.47;1.20;;;8.90;99.90;;;;;;4950208;28;20208;-74
2024/02/22 08:01:54;;;;;;;1.77;1.23;;;8.90;99.90;;;;;;4949965;28;20707;-74
2024/02/22 08:04:23;;;;;;;1.33;1.23;;;9.00;99.90;;;;;;4949393;29;20695;-74
2024/02/22 08:06:50;;;;;;;1.20;1.20;;;8.90;99.90;;;;;;4949519;29;20243;-74
2024/02/22 08:09:18;;;;;;;2.00;1.03;;;9.00;99.90;;;;;;4949167;28;20769;-74
2024/02/22 08:11:46;;;;;;;1.10;0.90;;;9.00;99.90;;;;;;4949824;28;20291;-73
2024/02/22 08:14:13;;;;;;;1.27;0.97;;;9.00;99.90;;;;;;4949814;29;20222;-74
2024/02/22 08:16:40;;;;;;;1.77;1.17;;;8.90;99.90;;;;;;4949869;29;20294;-74
2024/02/22 08:19:07;;;;;;;1.20;1.10;;;9.00;99.90;;;;;;4949198;29;20212;-74
2024/02/22 08:21:33;;;;;;;1.20;1.10;;;8.90;99.90;;;;;;4949371;28;20346;-74
2024/02/22 08:24:00;;;;;;;2.10;1.33;;;8.90;99.90;;;;;;4949106;29;20251;-74
2024/02/22 08:26:29;;;;;;;1.40;1.30;;;8.90;99.90;;;;;;4955842;28;20246;-75
2024/02/22 08:28:56;;;;;;;1.30;1.20;;;8.80;99.90;;;;;;4968911;28;20291;-75
2024/02/22 08:31:24;;;;;;;1.27;1.20;;;8.80;99.90;;;;;;4968588;28;20279;-75
2024/02/22 08:33:51;;;;;;;1.40;1.30;;;8.90;99.90;;;;;;4968634;28;20277;-75
2024/02/22 08:36:18;;;;;;;1.30;1.20;;;8.90;99.90;;;;;;4968195;28;20827;-75
2024/02/22 08:38:44;;;;;;;1.70;1.60;;;8.90;99.90;;;;;;4968361;28;20705;-75
2024/02/22 08:41:12;;;;;;;1.83;1.47;;;9.00;99.90;;;;;;4968091;28;20658;-75
2024/02/22 08:43:42;;;;;;;1.13;1.13;;;8.90;99.90;;;;;;4968422;28;20241;-75
2024/02/22 08:46:08;;;;;;;1.70;1.60;;;9.00;99.90;;;;;;4967914;28;20211;-75
2024/02/22 08:48:36;;;;;;;1.13;1.13;;;9.00;99.90;;;;;;4968424;28;20700;-75
2024/02/22 08:51:03;;;;;;;1.87;1.60;;;8.90;99.90;;;;;;4968125;28;20217;-75
2024/02/22 08:53:31;;;;;;;2.03;1.70;;;9.00;99.90;;;;;;4967912;28;20681;-75
2024/02/22 08:55:58;;;;;;;1.53;1.47;;;9.00;99.90;;;;;;4967987;28;20210;-75
2024/02/22 08:58:25;;;;;;;2.53;1.60;;;9.00;99.90;;;;;;4968088;28;20581;-75
2024/02/22 09:00:53;;;;;;;1.80;1.70;;;9.00;99.90;;;;;;4968287;28;20265;-75
2024/02/22 09:03:20;;;;;;;1.77;1.70;;;9.00;99.90;;;;;;4968055;28;20218;-75
2024/02/22 09:05:47;;;;;;;1.97;1.80;;;9.00;99.90;;;;;;4968233;28;20636;-75
2024/02/22 09:08:14;;;;;;;2.13;1.60;;;9.00;99.90;;;;;;4967532;28;20741;-76
2024/02/22 09:10:40;;;;;;;1.70;1.60;;;9.00;99.90;;;;;;4968497;28;20206;-75
2024/02/22 09:13:07;;;;;;;2.90;1.80;;;9.00;99.90;;;;;;4968157;28;20290;-75
2024/02/22 09:15:34;;;;;;;1.90;1.80;;;9.00;99.90;;;;;;4968051;28;20640;-75
2024/02/22 09:18:03;;;;;;;1.80;1.70;;;9.00;99.90;;;;;;4967774;28;20237;-75
2024/02/22 09:20:30;;;;;;;1.67;1.57;;;9.00;99.90;;;;;;4968280;28;20305;-75
2024/02/22 09:22:57;;;;;;;1.87;1.77;;;9.00;99.90;;;;;;4967596;28;20358;-75
2024/02/22 09:25:24;;;;;;;2.10;1.83;;;9.00;99.90;;;;;;4968190;28;20647;-75
2024/02/22 09:27:51;;;;;;;1.83;1.73;;;9.10;99.90;;;;;;4967952;28;20920;-75
2024/02/22 09:30:18;;;;;;;1.97;1.87;;;9.10;99.90;;;;;;4967809;28;20317;-75
2024/02/22 09:32:45;;;;;;;2.10;2.00;;;9.10;99.90;;;;;;4965883;28;20313;-75
2024/02/22 09:35:15;;;;;;;2.93;1.90;;;9.10;99.90;;;;;;4959499;28;20290;-75
2024/02/22 09:37:42;;;;;;;1.93;1.83;;;9.20;99.90;;;;;;4967874;28;20195;-75
2024/02/22 09:40:12;;;;;;;1.80;1.70;;;9.20;99.90;;;;;;4967632;28;20685;-75
2024/02/22 09:42:39;;;;;;;1.90;1.80;;;9.20;99.90;;;;;;4968035;28;20218;-75
2024/02/22 09:45:07;;;;;;;1.63;1.53;;;9.20;99.90;;;;;;4967527;28;20753;-75
2024/02/22 09:47:34;;;;;;;2.00;1.90;;;9.20;99.90;;;;;;4969089;28;20709;-75
2024/02/22 09:50:01;;;;;;;2.10;2.00;;;9.20;99.90;;;;;;4967646;28;20559;-75
2024/02/22 09:52:29;;;;;;;2.30;2.10;;;9.20;99.90;;;;;;4952120;29;20247;-75
2024/02/22 09:54:56;;;;;;;1.70;1.70;;;9.20;99.90;;;;;;4952269;29;20235;-76
2024/02/22 09:57:23;;;;;;;2.10;2.00;;;9.20;99.90;;;;;;4965688;28;20242;-75
2024/02/22 09:59:51;;;;;;;2.20;2.10;;;9.20;99.90;;;;;;4971592;28;20630;-75
2024/02/22 10:02:18;;;;;;;1.80;1.80;;;9.20;99.90;;;;;;4971749;28;20218;-75
2024/02/22 10:04:51;;;;;;;2.03;1.93;;;9.20;99.90;;;;;;4971566;28;20337;-75
2024/02/22 10:07:22;;;;;;;1.90;1.80;;;9.20;99.90;;;;;;4971312;28;20265;-76
2024/02/22 10:09:51;;;;;;;2.27;2.17;;;9.20;99.90;;;;;;4971847;28;20207;-75
2024/02/22 10:12:25;;;;;;;2.20;2.10;;;9.20;99.90;;;;;;4971550;28;20298;-76
2024/02/22 10:14:52;;;;;;;2.20;2.00;;;9.30;99.90;;;;;;4971293;28;20297;-75
2024/02/22 10:17:23;;;;;;;2.30;2.20;;;9.30;99.90;;;;;;4970936;28;20638;-76
2024/02/22 10:19:57;;;;;;;2.30;2.20;;;9.30;99.90;;;;;;4971216;28;20238;-75
2024/02/22 10:22:25;;;;;;;2.10;2.00;;;9.30;99.90;;;;;;4971025;28;20321;-76
2024/02/22 10:24:53;;;;;;;1.93;1.83;;;9.30;99.90;;;;;;4970901;28;20250;-75
2024/02/22 10:27:22;;;;;;;1.83;1.83;;;9.40;99.90;;;;;;4957936;28;20391;-75
2024/02/22 10:29:49;;;;;;;1.90;1.80;;;9.40;99.90;;;;;;4960224;28;20217;-75
2024/02/22 10:32:19;;;;;;;1.70;1.70;;;9.40;99.90;;;;;;4962260;28;20666;-75
2024/02/22 10:34:50;;;;;;;2.30;2.10;;;9.40;99.90;;;;;;4971009;28;20207;-75
2024/02/22 10:37:17;;;;;;;1.97;1.87;;;9.40;99.90;;;;;;4970861;28;20202;-75
2024/02/22 10:39:45;;;;;;;2.00;1.77;;;9.40;99.90;;;;;;4971050;28;20297;-76
2024/02/22 10:42:14;;;;;;;1.80;1.70;;;9.50;99.90;;;;;;4970647;28;20575;-75
2024/02/22 10:44:43;;;;;;;1.70;1.63;;;9.50;99.90;;;;;;4970348;28;20321;-75
2024/02/22 10:47:11;;;;;;;1.90;1.80;;;9.50;99.90;;;;;;4970302;28;20215;-75
2024/02/22 10:49:39;;;;;;;1.80;1.70;;;9.60;99.90;;;;;;4970870;28;20215;-76
2024/02/22 10:52:07;;;;;;;1.80;1.70;;;9.70;99.90;;;;;;4970141;28;20203;-75
2024/02/22 10:54:35;;;;;;;1.80;1.70;;;9.80;99.90;;;;;;4970513;28;20249;-76
2024/02/22 10:57:02;;;;;;;1.90;1.80;;;9.90;99.90;;;;;;4970136;28;20219;-75
2024/02/22 10:59:34;;;;;;;1.83;1.73;;;10.00;99.90;;;;;;4970674;28;20289;-74
2024/02/22 11:02:03;;;;;;;1.50;1.50;;;10.20;99.90;;;;;;4970343;28;20227;-73
2024/02/22 11:04:31;;;;;;;1.37;1.37;;;10.20;99.90;;;;;;4970352;28;20238;-74
2024/02/22 11:07:05;;;;;;;1.57;1.57;;;10.20;99.90;;;;;;4970117;28;20213;-74
2024/02/22 11:09:40;;;;;;;1.50;1.40;;;10.20;99.90;;;;;;4970551;28;21013;-74
2024/02/22 11:12:08;;;;;;;1.20;1.20;;;10.10;99.90;;;;;;4969892;28;20197;-74
2024/02/22 11:14:40;;;;;;;1.30;1.30;;;10.20;99.90;;;;;;4970110;28;20217;-73
2024/02/22 11:17:17;;;;;;;1.30;1.30;;;10.20;99.90;;;;;;4970052;28;20247;-74
2024/02/22 11:19:44;;;;;;;1.17;1.13;;;10.30;99.90;;;;;;4970090;28;20217;-74
2024/02/22 11:22:15;;;;;;;1.20;1.20;;;10.30;99.90;;;;;;4969799;28;20233;-73
2024/02/22 11:24:42;;;;;;;1.07;1.07;;;10.40;99.90;;;;;;4969827;28;20333;-74
2024/02/22 11:27:10;;;;;;;1.10;1.10;;;10.40;99.90;;;;;;4969648;28;21011;-73
2024/02/22 11:29:38;;;;;;;1.40;1.30;;;10.40;99.90;;;;;;4969647;28;20249;-74
2024/02/22 11:32:06;;;;;;;1.20;1.20;;;10.40;99.90;;;;;;4969543;28;20215;-73
2024/02/22 11:34:34;;;;;;;1.07;1.07;;;10.40;99.90;;;;;;4969367;28;20229;-73
2024/02/22 11:37:10;;;;;;;0.90;0.90;;;10.40;99.90;;;;;;4969408;28;20601;-73
2024/02/22 11:39:37;;;;;;;1.30;1.30;;;10.30;99.90;;;;;;4969403;28;20783;-73
2024/02/22 11:42:04;;;;;;;1.57;1.50;;;10.40;99.90;;;;;;4969305;28;20615;-73
2024/02/22 11:44:32;;;;;;;1.00;1.00;;;10.40;99.90;;;;;;4969411;28;20262;-75
2024/02/22 11:47:00;;;;;;;0.90;0.90;;;10.40;99.90;;;;;;4969612;28;20207;-75
2024/02/22 11:49:28;;;;;;;1.20;1.20;;;10.40;99.90;;;;;;4969394;28;20309;-76
2024/02/22 11:51:55;;;;;;;1.20;1.20;;;10.40;99.90;;;;;;4968884;28;20293;-73
2024/02/22 11:54:24;;;;;;;1.03;1.03;;;10.40;99.90;;;;;;4969589;28;20214;-74
2024/02/22 11:56:52;;;;;;;0.93;0.93;;;10.40;99.90;;;;;;4959549;28;20313;-74
2024/02/22 11:59:19;;;;;;;1.07;1.00;;;10.50;99.90;;;;;;4949972;29;20215;-73
2024/02/22 12:01:46;;;;;;;0.80;0.80;;;10.40;99.90;;;;;;4949574;28;20253;-73
2024/02/22 12:04:15;;;;;;;1.07;1.00;;;10.50;99.90;;;;;;4949726;28;20306;-74
2024/02/22 12:06:43;;;;;;;0.70;0.70;;;10.50;99.90;;;;;;4949362;29;20215;-73
2024/02/22 12:09:10;;;;;;;0.83;0.80;;;10.40;99.90;;;;;;4949658;28;20247;-73
2024/02/22 12:11:37;;;;;;;0.80;0.80;;;10.50;99.90;;;;;;4949602;29;20207;-74
2024/02/22 12:14:04;;;;;;;1.00;0.90;;;10.50;99.90;;;;;;4949663;29;20207;-73
2024/02/22 12:16:32;;;;;;;0.80;0.80;;;10.50;99.90;;;;;;4949444;29;20255;-73
2024/02/22 12:19:00;;;;;;;0.70;0.70;;;10.50;99.90;;;;;;4949145;29;20302;-73
2024/02/22 12:21:29;;;;;;;0.93;0.93;;;10.40;99.90;;;;;;4949061;28;20262;-73
2024/02/22 12:24:00;;;;;;;0.90;0.90;;;10.50;99.90;;;;;;4962167;28;20234;-73
2024/02/22 12:26:27;;;;;;;0.80;0.70;;;10.40;99.90;;;;;;4981985;28;20289;-74
2024/02/22 12:28:54;;;;;;;0.90;0.90;;;10.40;99.90;;;;;;4968555;28;20683;-74
2024/02/22 12:31:22;;;;;;;1.10;1.10;;;10.40;99.90;;;;;;4968413;28;20215;-74
2024/02/22 12:33:51;;;;;;;0.77;0.77;;;10.30;99.90;;;;;;4968569;28;20264;-74
2024/02/22 12:36:18;;;;;;;1.07;1.07;;;10.30;99.90;;;;;;4968181;28;20306;-74
2024/02/22 12:38:46;;;;;;;1.70;1.17;;;10.30;99.90;;;;;;4964906;28;20239;-74
2024/02/22 12:41:13;;;;;;;1.03;1.03;;;10.30;99.90;;;;;;4949340;28;20290;-74
2024/02/22 12:43:45;;;;;;;1.17;1.17;;;10.20;99.90;;;;;;4949120;28;20379;-74
2024/02/22 12:46:12;;;;;;;1.10;1.10;;;10.20;99.90;;;;;;4949098;29;20283;-74
2024/02/22 12:48:40;;;;;;;1.23;1.23;;;10.30;99.90;;;;;;4949257;28;20211;-74
2024/02/22 12:51:07;;;;;;;1.30;1.30;;;10.30;99.90;;;;;;4948671;29;20694;-74
2024/02/22 12:53:34;;;;;;;1.20;1.20;;;10.30;99.90;;;;;;4948967;28;20306;-74
2024/02/22 12:56:02;;;;;;;1.30;1.30;;;10.30;99.90;;;;;;4948503;28;20223;-74
2024/02/22 12:58:31;;;;;;;1.30;1.30;;;10.30;99.90;;;;;;4948875;29;20215;-74